Time;durP1;ratioP1;P1;durP2;ratioP2;P2;SDS_P1;SDS_P2;PMS_P1;PMS_P2;Temp;Humidity;BMP_temperature;BMP_pressure;BME280_temperature;BME280_humidity;BME280_pressure;Samples;Min_cycle;Max_cycle;Signal;HPM_P1;HPM_P2
2022/07/29 00:00:37;;;;;;;59.95;50.30;;;25.00;49.10;;;;;;4948549;28;85606;-48
2022/07/29 00:03:03;;;;;;;60.30;50.33;;;25.00;49.10;;;;;;4939344;28;86481;-51
2022/07/29 00:05:28;;;;;;;61.13;50.33;;;25.00;49.00;;;;;;4941508;28;86343;-46
2022/07/29 00:07:54;;;;;;;61.20;50.22;;;25.00;49.10;;;;;;4941722;28;89888;-47
2022/07/29 00:10:20;;;;;;;60.85;50.60;;;25.00;49.10;;;;;;4946458;28;87308;-45
2022/07/29 00:12:46;;;;;;;60.13;50.50;;;25.00;49.20;;;;;;4942955;28;85974;-47
2022/07/29 00:15:11;;;;;;;60.63;50.40;;;25.00;49.20;;;;;;4941162;28;87570;-48
2022/07/29 00:17:37;;;;;;;60.08;50.25;;;25.00;49.20;;;;;;4953561;28;86163;-49
2022/07/29 00:20:04;;;;;;;60.42;50.50;;;25.00;49.20;;;;;;4953639;28;87394;-50
2022/07/29 00:22:29;;;;;;;60.45;50.60;;;25.00;49.20;;;;;;4957753;28;85020;-47
2022/07/29 00:24:55;;;;;;;61.63;50.42;;;25.00;49.20;;;;;;4940163;28;90870;-47
2022/07/29 00:27:21;;;;;;;60.55;50.42;;;25.00;49.30;;;;;;4939703;28;86291;-48
2022/07/29 00:29:47;;;;;;;60.08;50.35;;;25.00;49.20;;;;;;4939614;28;90160;-50
2022/07/29 00:32:13;;;;;;;60.92;50.22;;;25.00;49.20;;;;;;4941415;28;87511;-52
2022/07/29 00:37:23;;;;;;;61.00;50.67;;;25.00;49.20;;;;;;4944439;28;86421;-47
2022/07/29 00:39:49;;;;;;;59.95;50.35;;;25.00;49.30;;;;;;4943195;28;88224;-48
2022/07/29 00:42:16;;;;;;;59.85;50.35;;;25.00;49.30;;;;;;4943491;28;85836;-50
2022/07/29 00:44:42;;;;;;;60.88;50.55;;;25.00;49.30;;;;;;4936389;28;88056;-49
2022/07/29 00:47:10;;;;;;;60.10;50.50;;;25.00;49.30;;;;;;4948557;28;89161;-47
2022/07/29 00:49:36;;;;;;;61.10;50.58;;;25.00;49.30;;;;;;4953608;28;85802;-48
2022/07/29 00:52:03;;;;;;;60.67;50.63;;;25.00;49.40;;;;;;4942589;28;90678;-49
2022/07/29 00:54:30;;;;;;;61.03;50.60;;;25.00;49.40;;;;;;4934801;28;86091;-46
2022/07/29 00:56:57;;;;;;;60.67;50.65;;;25.00;49.30;;;;;;4941253;28;86286;-50
2022/07/29 00:59:23;;;;;;;60.67;50.53;;;25.00;49.40;;;;;;4946196;28;91108;-48
2022/07/29 01:01:49;;;;;;;60.22;50.72;;;25.00;49.40;;;;;;4940432;28;87396;-50
2022/07/29 01:04:14;;;;;;;60.70;50.63;;;25.00;49.40;;;;;;4945403;28;86809;-53
2022/07/29 01:06:41;;;;;;;59.97;50.30;;;25.00;49.40;;;;;;4944728;28;87805;-50
2022/07/29 01:09:07;;;;;;;61.13;50.63;;;25.00;49.40;;;;;;4940348;28;85200;-47
2022/07/29 01:11:33;;;;;;;61.35;50.67;;;25.00;49.40;;;;;;4936462;28;90824;-51
2022/07/29 01:14:00;;;;;;;61.67;50.38;;;25.00;49.40;;;;;;4952438;28;85030;-51
2022/07/29 01:16:31;;;;;;;60.58;50.65;;;24.90;49.40;;;;;;4948353;28;86712;-53
2022/07/29 01:19:12;;;;;;;61.35;50.75;;;24.90;49.50;;;;;;4952251;28;87249;-48
2022/07/29 01:21:57;;;;;;;61.92;50.70;;;24.90;49.50;;;;;;4940791;28;85354;-52
2022/07/29 01:24:38;;;;;;;60.38;50.35;;;24.90;49.50;;;;;;4937293;28;90019;-53
2022/07/29 01:27:48;;;;;;;60.30;50.77;;;24.90;49.50;;;;;;4940175;28;91871;-52
2022/07/29 01:30:14;;;;;;;61.92;50.65;;;24.90;50.20;;;;;;4938998;28;86314;-51
2022/07/29 01:32:42;;;;;;;60.00;50.38;;;24.90;49.60;;;;;;4944056;28;86680;-50
2022/07/29 01:35:22;;;;;;;61.38;50.80;;;24.90;49.60;;;;;;4947603;28;90174;-49
2022/07/29 01:38:05;;;;;;;61.63;50.72;;;24.90;49.60;;;;;;4951530;28;88852;-47
2022/07/29 01:40:49;;;;;;;60.95;50.63;;;24.90;49.60;;;;;;4948969;28;85308;-48
2022/07/29 01:43:18;;;;;;;60.63;50.65;;;24.90;49.70;;;;;;4951141;28;85989;-50
2022/07/29 01:45:48;;;;;;;60.22;50.58;;;24.90;49.70;;;;;;4949096;28;88651;-48
2022/07/29 01:48:22;;;;;;;60.92;50.67;;;24.90;49.70;;;;;;4942952;28;87449;-47
2022/07/29 01:50:56;;;;;;;61.22;50.42;;;24.90;49.70;;;;;;4943082;28;88306;-51
2022/07/29 01:53:30;;;;;;;61.20;50.42;;;24.80;49.70;;;;;;4944872;28;85688;-50
2022/07/29 01:55:59;;;;;;;60.63;50.58;;;24.80;49.80;;;;;;4955518;28;86693;-47
2022/07/29 01:58:26;;;;;;;61.67;50.85;;;24.80;49.80;;;;;;4944916;28;87231;-46
2022/07/29 02:00:53;;;;;;;61.42;51.08;;;24.80;49.80;;;;;;4948174;28;86626;-51
2022/07/29 02:03:20;;;;;;;60.60;50.60;;;24.80;49.90;;;;;;4945751;28;86860;-51
2022/07/29 02:05:49;;;;;;;60.35;50.60;;;24.80;50.00;;;;;;4946098;28;91315;-50
2022/07/29 02:08:17;;;;;;;60.38;50.58;;;24.80;50.00;;;;;;4937305;28;94454;-50
2022/07/29 02:10:44;;;;;;;59.92;50.33;;;24.80;50.10;;;;;;4945829;28;94234;-45
2022/07/29 02:13:12;;;;;;;60.92;50.72;;;24.70;50.10;;;;;;4948169;28;89526;-51
2022/07/29 02:15:41;;;;;;;60.45;50.85;;;24.70;50.10;;;;;;4948062;28;91777;-47
2022/07/29 02:18:27;;;;;;;61.42;50.53;;;24.70;50.20;;;;;;4944128;28;91044;-49
2022/07/29 02:20:56;;;;;;;61.28;50.85;;;24.70;50.20;;;;;;4942396;28;89966;-49
2022/07/29 02:23:23;;;;;;;60.83;50.63;;;24.70;50.20;;;;;;4942827;28;95516;-45
2022/07/29 02:25:53;;;;;;;61.42;50.95;;;24.70;50.30;;;;;;4934978;28;95088;-48
2022/07/29 02:28:21;;;;;;;60.10;50.80;;;24.70;50.20;;;;;;4944960;28;91835;-49
2022/07/29 02:30:49;;;;;;;60.90;50.58;;;24.60;50.30;;;;;;4939309;28;92193;-46
2022/07/29 02:33:17;;;;;;;60.75;50.85;;;24.70;50.40;;;;;;4943939;28;93921;-50
2022/07/29 02:35:44;;;;;;;60.97;50.63;;;24.60;50.30;;;;;;4943848;28;92341;-46
2022/07/29 02:41:03;;;;;;;62.17;50.67;;;24.60;50.40;;;;;;4947501;28;95915;-49
2022/07/29 02:43:31;;;;;;;60.15;50.70;;;24.60;50.40;;;;;;4940828;28;97916;-50
2022/07/29 02:45:59;;;;;;;60.35;50.75;;;24.60;50.50;;;;;;4942346;28;91552;-52
2022/07/29 02:48:36;;;;;;;60.47;50.45;;;24.50;50.50;;;;;;4941805;28;91764;-49
2022/07/29 02:51:11;;;;;;;60.38;50.67;;;24.50;50.60;;;;;;4948664;28;90055;-45
2022/07/29 02:53:39;;;;;;;61.67;51.05;;;24.50;50.50;;;;;;4950031;28;89566;-48
2022/07/29 02:56:12;;;;;;;60.50;50.85;;;24.50;50.60;;;;;;4937999;28;89748;-47
2022/07/29 02:58:49;;;;;;;60.70;50.78;;;24.50;50.80;;;;;;4943508;28;90089;-50
2022/07/29 03:01:23;;;;;;;60.70;50.65;;;24.50;50.80;;;;;;4938838;28;90409;-46
2022/07/29 03:03:51;;;;;;;61.08;50.47;;;24.50;50.80;;;;;;4946600;28;90440;-49
2022/07/29 03:06:18;;;;;;;60.28;50.45;;;24.40;50.80;;;;;;4946570;28;97270;-48
2022/07/29 03:08:45;;;;;;;59.45;50.42;;;24.40;50.90;;;;;;4941642;28;96874;-45
2022/07/29 03:11:12;;;;;;;59.55;50.45;;;24.40;50.90;;;;;;4934780;28;90520;-49
2022/07/29 03:13:39;;;;;;;60.35;50.75;;;24.40;50.90;;;;;;4942356;28;90879;-47
2022/07/29 03:16:05;;;;;;;60.60;50.60;;;24.40;51.00;;;;;;4942347;28;90924;-49
2022/07/29 03:18:32;;;;;;;59.92;50.30;;;24.40;51.00;;;;;;4931186;28;89820;-45
2022/07/29 03:20:58;;;;;;;59.97;50.53;;;24.30;51.00;;;;;;4939554;28;90174;-48
2022/07/29 03:23:25;;;;;;;60.78;50.60;;;24.30;51.00;;;;;;4938398;28;89787;-50
2022/07/29 03:25:52;;;;;;;59.97;50.33;;;24.30;51.10;;;;;;4949812;28;90516;-47
2022/07/29 03:28:18;;;;;;;60.15;50.40;;;24.30;51.10;;;;;;4936089;27;90915;-46
2022/07/29 03:30:43;;;;;;;61.17;50.45;;;24.30;51.20;;;;;;4946543;28;90790;-47
2022/07/29 03:33:09;;;;;;;60.42;50.55;;;24.20;51.20;;;;;;4948583;28;92641;-49
2022/07/29 03:35:35;;;;;;;60.08;50.28;;;24.30;51.20;;;;;;4935462;28;90173;-45
2022/07/29 03:38:01;;;;;;;60.33;50.50;;;24.20;51.20;;;;;;4939180;28;89858;-49
2022/07/29 03:40:38;;;;;;;61.10;50.63;;;24.20;51.20;;;;;;4940784;28;90769;-51
2022/07/29 03:43:06;;;;;;;60.85;50.67;;;24.30;51.20;;;;;;4941814;28;90419;-50
2022/07/29 03:45:33;;;;;;;61.53;50.70;;;24.20;51.20;;;;;;4943729;28;90694;-48
2022/07/29 03:48:03;;;;;;;60.85;50.80;;;24.20;51.30;;;;;;4941783;28;89952;-51
2022/07/29 03:50:32;;;;;;;60.85;50.70;;;24.20;51.30;;;;;;4943499;28;89889;-48
2022/07/29 03:52:58;;;;;;;60.00;50.40;;;24.20;51.40;;;;;;4953000;28;90801;-45
2022/07/29 03:55:25;;;;;;;60.30;50.53;;;24.20;51.30;;;;;;4940506;28;90721;-50
2022/07/29 03:57:51;;;;;;;60.55;50.22;;;24.20;51.40;;;;;;4941614;28;93563;-50
2022/07/29 04:00:17;;;;;;;60.45;50.65;;;24.20;51.40;;;;;;4936630;28;92021;-50
2022/07/29 04:02:48;;;;;;;60.05;50.50;;;24.10;51.50;;;;;;4950236;28;90169;-49
2022/07/29 04:05:14;;;;;;;61.35;50.80;;;24.10;51.50;;;;;;4943903;28;90135;-52
2022/07/29 04:07:49;;;;;;;60.17;50.28;;;24.10;51.60;;;;;;4952971;28;90857;-50
2022/07/29 04:10:16;;;;;;;60.90;50.67;;;24.10;51.70;;;;;;4934790;28;89942;-50
2022/07/29 04:12:42;;;;;;;59.72;50.35;;;24.00;51.50;;;;;;4939870;28;89345;-46
2022/07/29 04:15:09;;;;;;;60.40;50.58;;;24.10;52.20;;;;;;4945650;28;93004;-51
2022/07/29 04:17:35;;;;;;;60.10;50.42;;;24.00;51.70;;;;;;4938771;28;90648;-47
2022/07/29 04:20:00;;;;;;;61.72;50.80;;;24.00;51.70;;;;;;4929782;28;92583;-49
2022/07/29 04:22:26;;;;;;;59.72;50.45;;;24.00;51.70;;;;;;4939688;28;90972;-46
2022/07/29 04:24:52;;;;;;;60.50;50.63;;;24.00;51.80;;;;;;4934401;28;90261;-45
2022/07/29 04:27:17;;;;;;;59.85;50.17;;;24.00;51.70;;;;;;4942948;28;90349;-47
2022/07/29 04:29:43;;;;;;;60.22;50.65;;;24.00;51.80;;;;;;4943735;28;90773;-51
2022/07/29 04:32:08;;;;;;;60.78;50.42;;;24.00;51.70;;;;;;4942349;28;89567;-50
2022/07/29 04:34:34;;;;;;;60.08;50.75;;;24.00;51.80;;;;;;4940693;28;91121;-49
2022/07/29 04:37:00;;;;;;;61.33;50.55;;;24.00;51.80;;;;;;4939609;28;89571;-52
2022/07/29 04:39:25;;;;;;;61.00;50.75;;;24.00;51.80;;;;;;4942162;28;89740;-50
2022/07/29 04:41:51;;;;;;;60.17;50.63;;;24.00;51.80;;;;;;4934161;28;93957;-46
2022/07/29 04:44:17;;;;;;;60.58;50.80;;;24.00;51.80;;;;;;4943630;28;91905;-52
2022/07/29 04:46:42;;;;;;;63.85;50.85;;;24.00;51.80;;;;;;4936814;28;90964;-50
2022/07/29 04:49:08;;;;;;;60.58;50.40;;;24.00;51.80;;;;;;4945718;28;89742;-52
2022/07/29 04:51:34;;;;;;;60.42;50.42;;;23.90;51.70;;;;;;4931050;28;91607;-52
2022/07/29 04:54:00;;;;;;;59.65;50.35;;;24.00;51.80;;;;;;4941329;28;92400;-50
2022/07/29 04:56:26;;;;;;;59.88;50.50;;;24.00;51.80;;;;;;4946531;28;92446;-47
2022/07/29 04:58:52;;;;;;;59.45;50.33;;;24.00;51.70;;;;;;4948629;28;90780;-51
2022/07/29 05:01:18;;;;;;;59.53;50.45;;;24.00;51.70;;;;;;4935360;28;90961;-46
2022/07/29 05:03:44;;;;;;;60.33;50.40;;;24.00;52.30;;;;;;4944921;28;93008;-50
2022/07/29 05:06:10;;;;;;;59.55;50.40;;;24.00;51.70;;;;;;4935501;28;90544;-50
2022/07/29 05:08:36;;;;;;;59.60;50.33;;;24.00;51.70;;;;;;4938605;28;94100;-52
2022/07/29 05:11:03;;;;;;;59.67;50.42;;;24.00;51.60;;;;;;4939185;28;92958;-48
2022/07/29 05:13:29;;;;;;;61.03;50.78;;;24.00;51.60;;;;;;4932563;28;91939;-52
2022/07/29 05:15:54;;;;;;;60.50;50.63;;;24.00;51.60;;;;;;4947140;28;89552;-48
2022/07/29 05:18:20;;;;;;;60.90;50.65;;;24.10;51.50;;;;;;4934799;28;90575;-49
2022/07/29 05:20:46;;;;;;;59.80;50.65;;;24.10;51.50;;;;;;4933655;28;92848;-46
2022/07/29 05:23:12;;;;;;;62.08;50.35;;;24.10;51.60;;;;;;4945164;28;90377;-49
2022/07/29 05:25:38;;;;;;;61.55;50.40;;;24.10;51.50;;;;;;4940343;28;90629;-45
2022/07/29 05:28:04;;;;;;;59.25;49.97;;;24.10;51.60;;;;;;4935302;28;90328;-47
2022/07/29 05:30:30;;;;;;;59.92;49.97;;;24.10;51.70;;;;;;4938878;28;90538;-50
2022/07/29 05:32:55;;;;;;;59.72;50.05;;;24.10;51.70;;;;;;4945177;28;90994;-44
2022/07/29 05:35:21;;;;;;;60.35;50.03;;;24.10;51.80;;;;;;4936358;28;91083;-48
2022/07/29 05:37:47;;;;;;;61.92;50.15;;;24.10;51.70;;;;;;4936703;28;90083;-46
2022/07/29 05:40:13;;;;;;;58.40;49.60;;;24.10;51.70;;;;;;4934841;28;90025;-49
2022/07/29 05:42:38;;;;;;;59.42;49.85;;;24.10;51.70;;;;;;4948699;28;90990;-45
2022/07/29 05:45:04;;;;;;;61.13;50.15;;;24.10;51.70;;;;;;4935200;28;95139;-51
2022/07/29 05:47:30;;;;;;;58.75;49.85;;;24.10;51.70;;;;;;4937992;28;90381;-50
2022/07/29 05:49:56;;;;;;;59.25;49.90;;;24.10;51.80;;;;;;4942487;28;91443;-45
2022/07/29 05:52:21;;;;;;;59.50;50.15;;;24.10;51.80;;;;;;4940108;28;93168;-46
2022/07/29 05:54:47;;;;;;;58.25;49.72;;;24.10;51.70;;;;;;4944523;28;90863;-51
2022/07/29 05:57:21;;;;;;;58.95;50.05;;;24.10;51.60;;;;;;4936455;28;91941;-48
2022/07/29 05:59:47;;;;;;;59.22;50.25;;;24.10;51.70;;;;;;4938586;28;89712;-46
2022/07/29 06:02:13;;;;;;;59.15;50.17;;;24.10;51.60;;;;;;4943636;28;91378;-46
2022/07/29 06:04:39;;;;;;;60.58;50.05;;;24.10;51.70;;;;;;4934581;28;90460;-46
2022/07/29 06:07:05;;;;;;;61.53;50.35;;;24.10;51.60;;;;;;4939311;28;90610;-45
2022/07/29 06:09:31;;;;;;;60.08;50.25;;;24.20;51.60;;;;;;4939188;28;90258;-52
2022/07/29 06:11:57;;;;;;;58.95;50.08;;;24.20;51.60;;;;;;4930870;28;90640;-45
2022/07/29 06:14:23;;;;;;;58.85;50.00;;;24.20;51.60;;;;;;4933986;28;89970;-46
2022/07/29 06:16:49;;;;;;;59.17;49.83;;;24.20;51.50;;;;;;4940044;28;89859;-51
2022/07/29 06:19:14;;;;;;;58.83;49.95;;;24.20;51.40;;;;;;4943474;28;89638;-48
2022/07/29 06:21:44;;;;;;;58.85;49.85;;;24.20;51.40;;;;;;4937886;28;91362;-54
2022/07/29 06:24:11;;;;;;;59.33;50.13;;;24.30;51.40;;;;;;4935938;28;98148;-49
2022/07/29 06:26:38;;;;;;;58.67;49.97;;;24.30;51.40;;;;;;4940227;28;89960;-45
2022/07/29 06:29:03;;;;;;;59.75;50.13;;;24.30;51.40;;;;;;4945956;28;91525;-50
2022/07/29 06:31:29;;;;;;;59.13;50.05;;;24.20;51.20;;;;;;4946378;28;91027;-49
2022/07/29 06:33:54;;;;;;;60.95;50.03;;;24.30;51.30;;;;;;4940320;28;95225;-48
2022/07/29 06:36:20;;;;;;;59.38;50.03;;;24.30;51.20;;;;;;4941658;28;90290;-49
2022/07/29 06:38:46;;;;;;;59.08;50.15;;;24.30;51.10;;;;;;4945075;28;89297;-48
2022/07/29 06:41:12;;;;;;;59.42;50.03;;;24.30;51.10;;;;;;4939718;28;91224;-44
2022/07/29 06:43:41;;;;;;;60.13;50.00;;;24.30;51.20;;;;;;4939657;28;94782;-49
2022/07/29 06:46:10;;;;;;;58.90;50.03;;;24.30;51.20;;;;;;4945293;28;91105;-49
2022/07/29 06:48:36;;;;;;;59.10;50.10;;;24.30;51.00;;;;;;4943536;28;91270;-48
2022/07/29 06:51:03;;;;;;;59.03;50.13;;;24.30;51.10;;;;;;4939052;28;90146;-46
2022/07/29 06:53:29;;;;;;;59.60;50.13;;;24.30;51.00;;;;;;4944479;28;89872;-45
2022/07/29 06:55:55;;;;;;;61.55;50.00;;;24.40;51.10;;;;;;4952582;28;90274;-49
2022/07/29 06:58:21;;;;;;;59.13;50.03;;;24.40;51.10;;;;;;4938788;28;89869;-48
2022/07/29 07:00:47;;;;;;;60.15;50.20;;;24.30;51.10;;;;;;4916843;28;96139;-49
2022/07/29 07:03:14;;;;;;;59.78;50.03;;;24.40;51.00;;;;;;4932048;28;90494;-45
2022/07/29 07:05:40;;;;;;;59.08;50.05;;;24.40;50.90;;;;;;4931107;28;91566;-45
2022/07/29 07:08:06;;;;;;;66.00;52.58;;;24.40;51.00;;;;;;4932438;28;91442;-43
2022/07/29 07:10:32;;;;;;;67.80;51.88;;;24.10;48.90;;;;;;4929462;28;96306;-42
2022/07/29 07:12:59;;;;;;;60.97;51.33;;;23.80;49.70;;;;;;4938289;28;91606;-42
2022/07/29 07:15:24;;;;;;;63.78;52.15;;;23.70;50.50;;;;;;4936770;28;90908;-42
2022/07/29 07:17:50;;;;;;;62.25;51.67;;;23.70;49.70;;;;;;4935548;28;91439;-45
2022/07/29 07:20:17;;;;;;;63.33;52.05;;;23.70;49.30;;;;;;4932908;28;90811;-43
2022/07/29 07:22:43;;;;;;;63.58;51.05;;;23.40;49.30;;;;;;4943841;28;91081;-42
2022/07/29 07:25:10;;;;;;;63.00;51.75;;;23.20;50.50;;;;;;4931975;28;90868;-45
2022/07/29 07:27:36;;;;;;;61.63;51.45;;;23.30;50.50;;;;;;4934188;28;89442;-43
2022/07/29 07:30:05;;;;;;;61.67;51.70;;;23.20;50.40;;;;;;4947881;28;92766;-46
2022/07/29 07:32:31;;;;;;;63.85;51.33;;;23.40;50.20;;;;;;4933388;28;89847;-45
2022/07/29 07:34:57;;;;;;;64.43;52.03;;;23.40;50.50;;;;;;4929014;28;91293;-45
2022/07/29 07:37:24;;;;;;;61.70;51.45;;;23.50;49.80;;;;;;4936298;28;91779;-42
2022/07/29 07:39:51;;;;;;;61.72;50.90;;;23.60;49.30;;;;;;4930083;28;97384;-42
2022/07/29 07:42:17;;;;;;;61.50;51.15;;;23.60;48.80;;;;;;4929346;28;92328;-43
2022/07/29 07:44:42;;;;;;;61.90;51.42;;;23.60;49.40;;;;;;4938464;28;96219;-42
2022/07/29 07:47:08;;;;;;;61.70;51.30;;;23.70;49.50;;;;;;4952851;28;90298;-47
2022/07/29 07:49:34;;;;;;;65.45;51.85;;;23.70;49.40;;;;;;4933708;28;90571;-44
2022/07/29 07:52:00;;;;;;;63.97;51.72;;;23.80;48.70;;;;;;4933515;28;90816;-44
2022/07/29 07:54:25;;;;;;;63.28;52.00;;;23.70;49.30;;;;;;4927627;28;94586;-43
2022/07/29 07:56:51;;;;;;;63.13;51.55;;;23.60;49.20;;;;;;4924086;28;90922;-44
2022/07/29 07:59:17;;;;;;;63.53;51.33;;;23.40;50.10;;;;;;4938534;28;96372;-42
2022/07/29 08:01:43;;;;;;;62.97;52.15;;;23.40;50.60;;;;;;4934361;28;94197;-43
2022/07/29 08:04:09;;;;;;;62.05;50.85;;;23.50;50.60;;;;;;4909654;28;95160;-45
2022/07/29 08:06:35;;;;;;;64.65;51.17;;;23.50;51.00;;;;;;4914159;28;90033;-42
2022/07/29 08:09:03;;;;;;;62.92;51.80;;;23.70;50.60;;;;;;4906794;28;95704;-42
2022/07/29 08:11:29;;;;;;;61.00;50.65;;;23.70;49.60;;;;;;4908589;28;90989;-41
2022/07/29 08:13:54;;;;;;;61.83;51.30;;;23.70;50.30;;;;;;4920138;28;91391;-45
2022/07/29 08:16:20;;;;;;;64.30;52.03;;;23.90;49.70;;;;;;4930399;28;90767;-43
2022/07/29 08:18:46;;;;;;;65.07;51.65;;;23.90;49.30;;;;;;4925046;28;90722;-42
2022/07/29 08:21:13;;;;;;;61.22;51.08;;;23.70;50.10;;;;;;4915785;28;97364;-42
2022/07/29 08:23:44;;;;;;;65.80;51.95;;;23.70;50.10;;;;;;4927137;28;91336;-44
2022/07/29 08:26:11;;;;;;;;;;;23.70;49.70;;;;;;4939205;28;91203;-43
2022/07/29 08:28:45;;;;;;;65.03;51.63;;;23.80;50.30;;;;;;4937591;28;90181;-41
2022/07/29 08:31:12;;;;;;;63.25;51.20;;;23.90;49.80;;;;;;4931869;28;91530;-43
2022/07/29 08:33:37;;;;;;;63.92;50.83;;;23.90;50.10;;;;;;4929859;28;95700;-45
2022/07/29 08:36:03;;;;;;;62.03;50.75;;;24.00;49.90;;;;;;4946183;28;91417;-42
2022/07/29 08:38:29;;;;;;;63.15;51.53;;;24.10;49.50;;;;;;4925908;28;92523;-42
2022/07/29 08:40:55;;;;;;;63.15;51.45;;;24.20;49.20;;;;;;4929772;28;94328;-44
2022/07/29 08:43:20;;;;;;;63.88;51.83;;;24.20;48.70;;;;;;4936964;28;90616;-42
2022/07/29 08:45:49;;;;;;;65.10;51.90;;;24.20;49.50;;;;;;4936822;28;90379;-52
2022/07/29 08:48:19;;;;;;;61.72;51.10;;;24.20;48.90;;;;;;4934416;28;96163;-48
2022/07/29 08:50:46;;;;;;;66.07;52.27;;;24.30;49.50;;;;;;4932971;28;95414;-45
2022/07/29 08:53:14;;;;;;;63.53;51.38;;;24.40;47.60;;;;;;4939200;28;90189;-48
2022/07/29 08:55:45;;;;;;;61.03;50.75;;;24.30;49.30;;;;;;4941476;28;90499;-51
2022/07/29 08:58:11;;;;;;;65.03;51.63;;;24.40;49.20;;;;;;4933285;28;90160;-50
2022/07/29 09:00:52;;;;;;;66.18;51.22;;;24.60;47.90;;;;;;4936741;28;95240;-56
2022/07/29 09:03:24;;;;;;;62.67;51.03;;;24.50;47.90;;;;;;4934790;28;91588;-48
2022/07/29 09:05:50;;;;;;;63.03;51.20;;;24.50;49.00;;;;;;4945095;28;89520;-47
2022/07/29 09:08:17;;;;;;;62.80;52.30;;;24.60;48.90;;;;;;4944169;28;90769;-51
2022/07/29 09:10:44;;;;;;;62.58;51.40;;;24.60;47.80;;;;;;4937717;28;89943;-43
2022/07/29 09:13:09;;;;;;;65.10;51.83;;;24.50;48.60;;;;;;4941280;28;93614;-43
2022/07/29 09:15:35;;;;;;;63.97;51.85;;;24.50;47.10;;;;;;4940591;28;92655;-50
2022/07/29 09:18:02;;;;;;;62.30;51.40;;;24.50;48.30;;;;;;4942713;28;90732;-47
2022/07/29 09:21:57;;;;;;;63.60;51.65;;;24.40;48.60;;;;;;4938585;28;91025;-47
2022/07/29 09:23:14;;;;;;;65.47;52.08;;;24.40;48.70;;;;;;4941927;28;89478;-43
2022/07/29 09:25:40;;;;;;;65.45;52.15;;;24.50;48.00;;;;;;4930238;28;90406;-47
2022/07/29 09:28:07;;;;;;;64.05;51.90;;;24.50;48.30;;;;;;4941151;28;92497;-48
2022/07/29 09:30:33;;;;;;;65.63;51.97;;;24.60;47.60;;;;;;4938342;28;90290;-48
2022/07/29 09:33:01;;;;;;;65.00;51.80;;;24.60;48.50;;;;;;4937172;28;90490;-44
2022/07/29 09:35:27;;;;;;;66.82;51.85;;;24.60;47.50;;;;;;4935196;28;90743;-48
2022/07/29 09:37:53;;;;;;;64.15;52.05;;;24.60;48.00;;;;;;4935479;28;93596;-45
2022/07/29 09:40:27;;;;;;;67.93;52.10;;;24.70;47.90;;;;;;4941701;28;90864;-48
2022/07/29 09:42:56;;;;;;;64.57;52.08;;;24.80;47.60;;;;;;4935952;28;90760;-48
2022/07/29 09:45:33;;;;;;;66.45;52.03;;;24.80;47.20;;;;;;4940639;28;89948;-44
2022/07/29 09:48:12;;;;;;;64.70;51.70;;;24.80;48.40;;;;;;4944298;28;92106;-50
2022/07/29 09:50:39;;;;;;;67.65;52.22;;;24.90;48.80;;;;;;4933169;28;90822;-42
2022/07/29 09:53:06;;;;;;;68.85;51.97;;;25.00;46.40;;;;;;4923622;28;91413;-48
2022/07/29 09:55:32;;;;;;;64.20;52.17;;;24.90;47.20;;;;;;4933244;28;95843;-44
2022/07/29 09:58:21;;;;;;;63.75;51.72;;;25.00;46.20;;;;;;4931097;28;91413;-50
2022/07/29 10:00:48;;;;;;;66.70;52.10;;;24.90;47.60;;;;;;4938575;28;91169;-48
2022/07/29 10:03:15;;;;;;;62.85;52.22;;;24.90;47.50;;;;;;4945142;28;91300;-46
2022/07/29 10:05:41;;;;;;;65.90;52.65;;;25.00;46.40;;;;;;4938791;28;92505;-50
2022/07/29 10:08:08;;;;;;;63.97;52.35;;;25.10;46.00;;;;;;4937172;28;90576;-44
2022/07/29 10:10:36;;;;;;;63.63;52.22;;;24.90;46.20;;;;;;4936076;28;90395;-48
2022/07/29 10:13:08;;;;;;;66.05;52.15;;;25.00;46.80;;;;;;4941015;28;90539;-45
2022/07/29 10:15:38;;;;;;;63.42;52.10;;;25.10;46.60;;;;;;4942521;28;90162;-47
2022/07/29 10:18:05;;;;;;;72.40;53.40;;;25.00;46.80;;;;;;4944086;28;97189;-52
2022/07/29 10:20:31;;;;;;;71.57;53.25;;;25.10;45.60;;;;;;4945029;28;92889;-50
2022/07/29 10:22:57;;;;;;;65.38;52.35;;;25.00;47.20;;;;;;4937231;28;90883;-49
2022/07/29 10:25:23;;;;;;;65.47;52.50;;;25.10;44.70;;;;;;4942786;28;93877;-51
2022/07/29 10:27:53;;;;;;;67.07;52.53;;;25.10;44.80;;;;;;4939473;28;91226;-49
2022/07/29 10:30:20;;;;;;;64.00;52.03;;;25.00;46.60;;;;;;4945017;28;91537;-47
2022/07/29 10:33:07;;;;;;;66.95;52.05;;;25.00;46.90;;;;;;4939405;28;91944;-48
2022/07/29 10:35:51;;;;;;;64.68;51.83;;;25.10;46.90;;;;;;4940032;28;90323;-47
2022/07/29 10:38:36;;;;;;;65.45;51.80;;;25.20;45.10;;;;;;4948599;28;91731;-47
2022/07/29 10:41:29;;;;;;;69.78;51.70;;;25.10;45.00;;;;;;4939183;28;90342;-48
2022/07/29 10:44:06;;;;;;;64.90;51.35;;;25.10;44.20;;;;;;4938567;28;95541;-47
2022/07/29 10:46:36;;;;;;;66.65;51.90;;;25.00;45.40;;;;;;4944355;28;91240;-47
2022/07/29 10:49:11;;;;;;;66.50;52.50;;;25.10;43.70;;;;;;4943106;28;91946;-45
2022/07/29 10:51:57;;;;;;;67.25;52.40;;;24.90;46.70;;;;;;4933906;28;90623;-46
2022/07/29 10:54:47;;;;;;;66.30;52.15;;;24.80;47.60;;;;;;4948829;28;91405;-45
2022/07/29 10:57:21;;;;;;;65.15;52.20;;;24.90;46.10;;;;;;4944419;28;90160;-46
2022/07/29 11:00:08;;;;;;;65.85;52.08;;;25.00;46.40;;;;;;4952833;28;90195;-43
2022/07/29 11:02:35;;;;;;;67.20;52.40;;;24.90;46.80;;;;;;4940987;28;90779;-49
2022/07/29 11:05:01;;;;;;;67.72;52.53;;;25.00;46.20;;;;;;4932764;28;89587;-47
2022/07/29 11:07:29;;;;;;;67.38;52.63;;;25.20;45.10;;;;;;4930849;28;96237;-44
2022/07/29 11:10:13;;;;;;;66.88;52.50;;;25.10;45.80;;;;;;4933561;28;90977;-49
2022/07/29 11:12:38;;;;;;;65.55;51.97;;;25.10;46.80;;;;;;4936106;28;90335;-48
2022/07/29 11:15:12;;;;;;;65.03;52.92;;;25.10;46.40;;;;;;4925242;28;92982;-46
2022/07/29 11:17:53;;;;;;;64.82;52.55;;;25.10;47.80;;;;;;4935357;28;94360;-48
2022/07/29 11:20:33;;;;;;;66.78;52.42;;;25.10;47.70;;;;;;4937154;28;96962;-46
2022/07/29 11:23:00;;;;;;;68.63;52.63;;;25.10;47.90;;;;;;4944383;28;90556;-47
2022/07/29 11:25:26;;;;;;;64.65;52.53;;;25.20;46.10;;;;;;4939872;28;89856;-45
2022/07/29 11:27:54;;;;;;;66.28;53.35;;;25.20;46.40;;;;;;4944078;28;89915;-46
2022/07/29 11:30:20;;;;;;;68.70;52.90;;;25.10;47.70;;;;;;4943599;28;90472;-48
2022/07/29 11:32:46;;;;;;;65.35;53.03;;;25.20;46.70;;;;;;4949416;28;90382;-45
2022/07/29 11:35:23;;;;;;;65.25;52.75;;;25.20;47.70;;;;;;4947354;28;90058;-45
2022/07/29 11:38:25;;;;;;;66.75;53.00;;;25.30;46.20;;;;;;4952276;28;88798;-44
2022/07/29 11:41:26;;;;;;;66.50;53.80;;;25.20;46.70;;;;;;4941665;28;90555;-45
2022/07/29 11:43:59;;;;;;;68.53;52.95;;;25.40;44.40;;;;;;4939447;28;89920;-47
2022/07/29 11:46:49;;;;;;;64.00;52.28;;;25.20;47.20;;;;;;4948014;28;90832;-45
2022/07/29 11:49:26;;;;;;;66.00;52.88;;;25.10;48.10;;;;;;4942755;28;95932;-47
2022/07/29 11:51:56;;;;;;;66.70;53.30;;;25.00;47.90;;;;;;4937170;28;91411;-47
2022/07/29 11:54:26;;;;;;;67.47;52.70;;;25.20;45.20;;;;;;4947610;28;94903;-49
2022/07/29 11:56:52;;;;;;;66.72;53.10;;;25.20;46.60;;;;;;4940251;28;89906;-44
2022/07/29 11:59:19;;;;;;;66.97;52.63;;;25.20;46.70;;;;;;4941426;28;89931;-51
2022/07/29 12:01:59;;;;;;;64.63;52.45;;;25.20;45.60;;;;;;4950740;28;90827;-49
2022/07/29 12:04:26;;;;;;;72.20;52.70;;;25.20;46.00;;;;;;4941696;28;91763;-46
2022/07/29 12:06:54;;;;;;;65.47;52.67;;;25.20;46.20;;;;;;4933845;28;90167;-43
2022/07/29 12:09:21;;;;;;;64.75;52.90;;;25.10;47.10;;;;;;4943148;28;89689;-53
2022/07/29 12:11:47;;;;;;;65.30;52.70;;;25.30;44.80;;;;;;4944651;28;91350;-44
2022/07/29 12:14:32;;;;;;;66.75;52.92;;;25.20;47.50;;;;;;4938117;28;91121;-43
2022/07/29 12:17:00;;;;;;;65.18;52.40;;;25.20;46.00;;;;;;4943207;28;89920;-50
2022/07/29 12:19:26;;;;;;;68.95;52.53;;;25.20;47.60;;;;;;4942431;28;91645;-50
2022/07/29 12:21:54;;;;;;;65.57;53.05;;;25.20;45.90;;;;;;4939601;28;92426;-43
2022/07/29 12:24:21;;;;;;;69.45;52.60;;;25.20;46.80;;;;;;4945238;28;91875;-48
2022/07/29 12:26:59;;;;;;;66.22;52.60;;;25.20;48.10;;;;;;4941031;28;90012;-47
2022/07/29 12:29:27;;;;;;;64.50;52.35;;;25.20;48.30;;;;;;4943486;28;90731;-44
2022/07/29 12:31:53;;;;;;;65.70;52.60;;;25.20;48.70;;;;;;4942077;28;92879;-48
2022/07/29 12:34:22;;;;;;;69.75;52.47;;;25.20;46.50;;;;;;4945384;28;90209;-43
2022/07/29 12:36:48;;;;;;;68.15;52.40;;;25.20;47.30;;;;;;4944482;28;93069;-48
2022/07/29 12:39:16;;;;;;;63.50;52.17;;;25.20;48.30;;;;;;4938348;28;90055;-47
2022/07/29 12:41:42;;;;;;;67.03;52.17;;;25.30;45.10;;;;;;4935850;28;91058;-45